Accueil
METAR-TAF:

METAR-TAF

Aéroports :

Sanderson Field Airport

Shelton, Washington, États-Unis

latitude: 47-14-17N, longitude: 123-08-27W, altitude: 82 m

Observation

Le bulletin a été fait il y a 1 heure et 2 minutes, à 08:53 UTC
Vent 13 kt de sud/sud-ouest avec des rafales jusqu'à 17 kt
Température 16°C
Humidité 82%
Pression 1010 hPa
Visibilité: 16.1 km
Nuages épars à une hauteur de 5500 ft

METAR: KSHN 220853Z AUTO 20013G17KT 10SM SCT055 16/13 A2983 RMK AO2 RAE02 SLP099 P0001 60002 T01560128 56003

Heure: 02:55 (09:55 UTC)


TAF: absent

Observations et prévisions météorologiques de plus de 4000 aéroports (messages METAR et TAF).

Les stations disponibles sont représentées par des disques jaunes et rouges sur la carte.

Passer la souris dessus pour voir le nom de la station.

Cliquer dessus pour voir les observations et prévisions météorologiques.

Pour changer de carte: cliquez sur les boutons verts avec une croix noire pour zoomer, sur le bouton vert avec un tiret pour effectuer un zoom arrière, ou sur les flèches vertes pour les cartes adjacentes.


METAR-TAF: